sensor_id;sensor_type;location;lat;lon;timestamp;P1;durP1;ratioP1;P2;durP2;ratioP2
31004;SDS011;17676;52.254;4.490;2023-11-21T00:01:55;14.77;;;2.35;;
31004;SDS011;17676;52.254;4.490;2023-11-21T00:04:22;16.80;;;2.45;;
31004;SDS011;17676;52.254;4.490;2023-11-21T00:06:47;12.10;;;2.30;;
31004;SDS011;17676;52.254;4.490;2023-11-21T00:09:13;12.15;;;2.75;;
31004;SDS011;17676;52.254;4.490;2023-11-21T00:11:40;12.77;;;2.50;;
31004;SDS011;17676;52.254;4.490;2023-11-21T00:14:06;10.02;;;2.58;;
31004;SDS011;17676;52.254;4.490;2023-11-21T00:16:33;15.15;;;3.78;;
31004;SDS011;17676;52.254;4.490;2023-11-21T00:18:59;16.70;;;4.45;;
31004;SDS011;17676;52.254;4.490;2023-11-21T00:21:24;18.80;;;4.70;;
31004;SDS011;17676;52.254;4.490;2023-11-21T00:23:50;18.25;;;4.97;;
31004;SDS011;17676;52.254;4.490;2023-11-21T00:26:16;20.20;;;5.45;;
31004;SDS011;17676;52.254;4.490;2023-11-21T00:28:42;14.57;;;4.55;;
31004;SDS011;17676;52.254;4.490;2023-11-21T00:31:07;21.00;;;5.97;;
31004;SDS011;17676;52.254;4.490;2023-11-21T00:33:33;17.48;;;6.40;;
31004;SDS011;17676;52.254;4.490;2023-11-21T00:35:58;17.65;;;5.35;;
31004;SDS011;17676;52.254;4.490;2023-11-21T00:38:24;17.30;;;4.97;;
31004;SDS011;17676;52.254;4.490;2023-11-21T00:40:50;15.48;;;4.78;;
31004;SDS011;17676;52.254;4.490;2023-11-21T00:43:15;14.35;;;5.03;;
31004;SDS011;17676;52.254;4.490;2023-11-21T00:45:42;11.82;;;3.85;;
31004;SDS011;17676;52.254;4.490;2023-11-21T00:48:07;13.77;;;4.35;;
31004;SDS011;17676;52.254;4.490;2023-11-21T00:50:33;17.33;;;4.53;;
31004;SDS011;17676;52.254;4.490;2023-11-21T00:52:59;12.75;;;4.22;;
31004;SDS011;17676;52.254;4.490;2023-11-21T00:55:24;14.48;;;4.10;;
31004;SDS011;17676;52.254;4.490;2023-11-21T00:57:50;11.48;;;4.45;;
31004;SDS011;17676;52.254;4.490;2023-11-21T01:00:15;15.02;;;4.43;;
31004;SDS011;17676;52.254;4.490;2023-11-21T01:02:44;18.92;;;4.10;;
31004;SDS011;17676;52.254;4.490;2023-11-21T01:05:10;11.25;;;3.78;;
31004;SDS011;17676;52.254;4.490;2023-11-21T01:07:36;12.95;;;4.30;;
31004;SDS011;17676;52.254;4.490;2023-11-21T01:10:02;9.68;;;3.85;;
31004;SDS011;17676;52.254;4.490;2023-11-21T01:12:31;13.48;;;4.05;;
31004;SDS011;17676;52.254;4.490;2023-11-21T01:14:56;14.45;;;4.60;;
31004;SDS011;17676;52.254;4.490;2023-11-21T01:17:25;16.70;;;4.55;;
31004;SDS011;17676;52.254;4.490;2023-11-21T01:19:51;21.08;;;4.75;;
31004;SDS011;17676;52.254;4.490;2023-11-21T01:22:16;13.82;;;3.15;;
31004;SDS011;17676;52.254;4.490;2023-11-21T01:24:47;14.70;;;4.05;;
31004;SDS011;17676;52.254;4.490;2023-11-21T01:27:13;17.85;;;3.42;;
31004;SDS011;17676;52.254;4.490;2023-11-21T01:29:38;15.90;;;3.95;;
31004;SDS011;17676;52.254;4.490;2023-11-21T01:32:04;9.35;;;2.55;;
31004;SDS011;17676;52.254;4.490;2023-11-21T01:34:32;6.88;;;2.35;;
31004;SDS011;17676;52.254;4.490;2023-11-21T01:36:58;7.85;;;1.30;;
31004;SDS011;17676;52.254;4.490;2023-11-21T01:39:24;4.53;;;0.70;;
31004;SDS011;17676;52.254;4.490;2023-11-21T01:41:51;4.70;;;1.00;;
31004;SDS011;17676;52.254;4.490;2023-11-21T01:44:17;6.88;;;0.60;;
31004;SDS011;17676;52.254;4.490;2023-11-21T01:46:44;4.25;;;0.40;;
31004;SDS011;17676;52.254;4.490;2023-11-21T01:49:11;4.10;;;0.30;;
31004;SDS011;17676;52.254;4.490;2023-11-21T01:51:38;2.00;;;0.20;;
31004;SDS011;17676;52.254;4.490;2023-11-21T01:54:05;1.13;;;0.30;;
31004;SDS011;17676;52.254;4.490;2023-11-21T01:56:31;4.10;;;0.40;;
31004;SDS011;17676;52.254;4.490;2023-11-21T01:58:57;1.13;;;0.20;;
31004;SDS011;17676;52.254;4.490;2023-11-21T02:01:23;1.95;;;0.30;;
31004;SDS011;17676;52.254;4.490;2023-11-21T02:03:48;6.22;;;0.40;;
31004;SDS011;17676;52.254;4.490;2023-11-21T02:06:14;2.13;;;0.40;;
31004;SDS011;17676;52.254;4.490;2023-11-21T02:08:39;6.03;;;0.52;;
31004;SDS011;17676;52.254;4.490;2023-11-21T02:11:07;5.28;;;0.45;;
31004;SDS011;17676;52.254;4.490;2023-11-21T02:13:37;1.65;;;0.45;;
31004;SDS011;17676;52.254;4.490;2023-11-21T02:16:02;2.40;;;0.47;;
31004;SDS011;17676;52.254;4.490;2023-11-21T02:18:30;2.45;;;0.50;;
31004;SDS011;17676;52.254;4.490;2023-11-21T02:20:56;4.72;;;0.30;;
31004;SDS011;17676;52.254;4.490;2023-11-21T02:23:21;5.60;;;0.30;;
31004;SDS011;17676;52.254;4.490;2023-11-21T02:25:48;4.68;;;0.30;;
31004;SDS011;17676;52.254;4.490;2023-11-21T02:28:13;3.45;;;0.45;;
31004;SDS011;17676;52.254;4.490;2023-11-21T02:30:43;2.33;;;0.45;;
31004;SDS011;17676;52.254;4.490;2023-11-21T02:33:08;2.40;;;0.73;;
31004;SDS011;17676;52.254;4.490;2023-11-21T02:35:38;2.08;;;0.50;;
31004;SDS011;17676;52.254;4.490;2023-11-21T02:38:03;1.95;;;0.32;;
31004;SDS011;17676;52.254;4.490;2023-11-21T02:40:29;7.55;;;0.55;;
31004;SDS011;17676;52.254;4.490;2023-11-21T02:42:54;4.03;;;0.40;;
31004;SDS011;17676;52.254;4.490;2023-11-21T02:45:20;1.02;;;0.40;;
31004;SDS011;17676;52.254;4.490;2023-11-21T02:47:47;3.97;;;0.50;;
31004;SDS011;17676;52.254;4.490;2023-11-21T02:50:14;1.27;;;0.45;;
31004;SDS011;17676;52.254;4.490;2023-11-21T02:52:39;3.33;;;0.32;;
31004;SDS011;17676;52.254;4.490;2023-11-21T02:55:05;5.72;;;0.45;;
31004;SDS011;17676;52.254;4.490;2023-11-21T02:57:34;6.57;;;0.50;;
31004;SDS011;17676;52.254;4.490;2023-11-21T03:00:00;5.05;;;0.90;;
31004;SDS011;17676;52.254;4.490;2023-11-21T03:02:25;7.10;;;0.60;;
31004;SDS011;17676;52.254;4.490;2023-11-21T03:04:51;5.90;;;0.60;;
31004;SDS011;17676;52.254;4.490;2023-11-21T03:07:17;3.55;;;0.63;;
31004;SDS011;17676;52.254;4.490;2023-11-21T03:09:46;3.80;;;0.60;;
31004;SDS011;17676;52.254;4.490;2023-11-21T03:12:12;2.42;;;0.52;;
31004;SDS011;17676;52.254;4.490;2023-11-21T03:14:39;2.13;;;0.40;;
31004;SDS011;17676;52.254;4.490;2023-11-21T03:17:05;2.30;;;0.43;;
31004;SDS011;17676;52.254;4.490;2023-11-21T03:19:30;1.00;;;0.40;;
31004;SDS011;17676;52.254;4.490;2023-11-21T03:21:56;5.18;;;0.93;;
31004;SDS011;17676;52.254;4.490;2023-11-21T03:24:22;4.53;;;0.60;;
31004;SDS011;17676;52.254;4.490;2023-11-21T03:26:50;4.03;;;0.63;;
31004;SDS011;17676;52.254;4.490;2023-11-21T03:29:16;6.10;;;0.80;;
31004;SDS011;17676;52.254;4.490;2023-11-21T03:31:42;6.10;;;0.70;;
31004;SDS011;17676;52.254;4.490;2023-11-21T03:34:10;8.98;;;0.60;;
31004;SDS011;17676;52.254;4.490;2023-11-21T03:36:40;1.92;;;0.55;;
31004;SDS011;17676;52.254;4.490;2023-11-21T03:39:05;4.90;;;0.47;;
31004;SDS011;17676;52.254;4.490;2023-11-21T03:41:31;2.00;;;0.30;;
31004;SDS011;17676;52.254;4.490;2023-11-21T03:43:57;3.80;;;0.40;;
31004;SDS011;17676;52.254;4.490;2023-11-21T03:46:22;1.85;;;0.35;;
31004;SDS011;17676;52.254;4.490;2023-11-21T03:48:48;0.52;;;0.30;;
31004;SDS011;17676;52.254;4.490;2023-11-21T03:51:14;0.85;;;0.30;;
31004;SDS011;17676;52.254;4.490;2023-11-21T03:53:39;1.60;;;0.20;;
31004;SDS011;17676;52.254;4.490;2023-11-21T03:56:05;2.50;;;0.43;;
31004;SDS011;17676;52.254;4.490;2023-11-21T03:58:31;4.88;;;0.30;;
31004;SDS011;17676;52.254;4.490;2023-11-21T04:00:56;3.30;;;0.30;;
31004;SDS011;17676;52.254;4.490;2023-11-21T04:03:22;4.18;;;0.65;;
31004;SDS011;17676;52.254;4.490;2023-11-21T04:05:47;1.15;;;0.30;;
31004;SDS011;17676;52.254;4.490;2023-11-21T04:08:13;2.15;;;0.30;;
31004;SDS011;17676;52.254;4.490;2023-11-21T04:10:38;0.50;;;0.40;;
31004;SDS011;17676;52.254;4.490;2023-11-21T04:13:04;2.67;;;0.20;;
31004;SDS011;17676;52.254;4.490;2023-11-21T04:15:31;2.28;;;0.25;;
31004;SDS011;17676;52.254;4.490;2023-11-21T04:17:57;1.13;;;0.20;;
31004;SDS011;17676;52.254;4.490;2023-11-21T04:20:22;0.90;;;0.40;;
31004;SDS011;17676;52.254;4.490;2023-11-21T04:22:48;1.38;;;0.20;;
31004;SDS011;17676;52.254;4.490;2023-11-21T04:25:14;2.55;;;0.10;;
31004;SDS011;17676;52.254;4.490;2023-11-21T04:27:40;0.25;;;0.10;;
31004;SDS011;17676;52.254;4.490;2023-11-21T04:30:09;1.10;;;0.10;;
31004;SDS011;17676;52.254;4.490;2023-11-21T04:32:35;2.33;;;0.10;;
31004;SDS011;17676;52.254;4.490;2023-11-21T04:35:01;3.08;;;0.20;;
31004;SDS011;17676;52.254;4.490;2023-11-21T04:37:27;1.55;;;0.20;;
31004;SDS011;17676;52.254;4.490;2023-11-21T04:39:52;1.13;;;0.10;;
31004;SDS011;17676;52.254;4.490;2023-11-21T04:42:18;0.98;;;0.15;;
31004;SDS011;17676;52.254;4.490;2023-11-21T04:44:44;2.05;;;0.13;;
31004;SDS011;17676;52.254;4.490;2023-11-21T04:47:10;2.88;;;0.30;;
31004;SDS011;17676;52.254;4.490;2023-11-21T04:49:36;1.80;;;0.30;;
31004;SDS011;17676;52.254;4.490;2023-11-21T04:52:01;2.85;;;0.25;;
31004;SDS011;17676;52.254;4.490;2023-11-21T04:54:29;1.20;;;0.30;;
31004;SDS011;17676;52.254;4.490;2023-11-21T04:56:55;3.72;;;0.30;;
31004;SDS011;17676;52.254;4.490;2023-11-21T04:59:21;2.53;;;0.40;;
31004;SDS011;17676;52.254;4.490;2023-11-21T05:01:49;3.88;;;0.40;;
31004;SDS011;17676;52.254;4.490;2023-11-21T05:04:16;2.85;;;0.30;;
31004;SDS011;17676;52.254;4.490;2023-11-21T05:06:41;2.13;;;0.30;;
31004;SDS011;17676;52.254;4.490;2023-11-21T05:09:07;3.72;;;0.30;;
31004;SDS011;17676;52.254;4.490;2023-11-21T05:11:37;2.92;;;0.20;;
31004;SDS011;17676;52.254;4.490;2023-11-21T05:14:03;3.22;;;0.30;;
31004;SDS011;17676;52.254;4.490;2023-11-21T05:16:31;4.78;;;0.20;;
31004;SDS011;17676;52.254;4.490;2023-11-21T05:19:00;3.35;;;0.20;;
31004;SDS011;17676;52.254;4.490;2023-11-21T05:21:29;2.20;;;0.20;;
31004;SDS011;17676;52.254;4.490;2023-11-21T05:23:58;6.95;;;0.28;;
31004;SDS011;17676;52.254;4.490;2023-11-21T05:26:24;2.28;;;0.55;;
31004;SDS011;17676;52.254;4.490;2023-11-21T05:28:50;4.82;;;0.28;;
31004;SDS011;17676;52.254;4.490;2023-11-21T05:31:16;7.97;;;0.30;;
31004;SDS011;17676;52.254;4.490;2023-11-21T05:33:41;3.40;;;0.17;;
31004;SDS011;17676;52.254;4.490;2023-11-21T05:36:07;4.40;;;0.20;;
31004;SDS011;17676;52.254;4.490;2023-11-21T05:38:34;6.65;;;0.28;;
31004;SDS011;17676;52.254;4.490;2023-11-21T05:41:00;12.18;;;0.30;;
31004;SDS011;17676;52.254;4.490;2023-11-21T05:43:26;5.50;;;0.20;;
31004;SDS011;17676;52.254;4.490;2023-11-21T05:45:53;4.25;;;0.17;;
31004;SDS011;17676;52.254;4.490;2023-11-21T05:48:19;2.25;;;0.20;;
31004;SDS011;17676;52.254;4.490;2023-11-21T05:50:46;4.85;;;0.20;;
31004;SDS011;17676;52.254;4.490;2023-11-21T05:53:13;6.78;;;0.63;;
31004;SDS011;17676;52.254;4.490;2023-11-21T05:55:40;13.02;;;0.50;;
31004;SDS011;17676;52.254;4.490;2023-11-21T05:58:06;6.97;;;0.40;;
31004;SDS011;17676;52.254;4.490;2023-11-21T06:00:32;10.43;;;0.50;;
31004;SDS011;17676;52.254;4.490;2023-11-21T06:03:01;9.32;;;0.77;;
31004;SDS011;17676;52.254;4.490;2023-11-21T06:05:26;9.40;;;1.25;;
31004;SDS011;17676;52.254;4.490;2023-11-21T06:07:52;8.15;;;1.08;;
31004;SDS011;17676;52.254;4.490;2023-11-21T06:10:22;5.07;;;1.33;;
31004;SDS011;17676;52.254;4.490;2023-11-21T06:12:48;11.75;;;1.60;;
31004;SDS011;17676;52.254;4.490;2023-11-21T06:15:14;15.25;;;2.53;;
31004;SDS011;17676;52.254;4.490;2023-11-21T06:17:40;7.55;;;1.83;;
31004;SDS011;17676;52.254;4.490;2023-11-21T06:20:07;15.70;;;2.25;;
31004;SDS011;17676;52.254;4.490;2023-11-21T06:22:37;14.02;;;2.25;;
31004;SDS011;17676;52.254;4.490;2023-11-21T06:25:04;15.88;;;2.50;;
31004;SDS011;17676;52.254;4.490;2023-11-21T06:27:34;14.85;;;2.53;;
31004;SDS011;17676;52.254;4.490;2023-11-21T06:30:02;19.00;;;2.92;;
31004;SDS011;17676;52.254;4.490;2023-11-21T06:32:28;16.20;;;2.38;;
31004;SDS011;17676;52.254;4.490;2023-11-21T06:34:57;17.50;;;2.22;;
31004;SDS011;17676;52.254;4.490;2023-11-21T06:37:26;12.07;;;2.30;;
31004;SDS011;17676;52.254;4.490;2023-11-21T06:39:53;18.80;;;3.20;;
31004;SDS011;17676;52.254;4.490;2023-11-21T06:42:18;14.98;;;3.20;;
31004;SDS011;17676;52.254;4.490;2023-11-21T06:44:45;17.30;;;3.38;;
31004;SDS011;17676;52.254;4.490;2023-11-21T06:47:11;17.13;;;3.65;;
31004;SDS011;17676;52.254;4.490;2023-11-21T06:49:37;16.55;;;3.42;;
31004;SDS011;17676;52.254;4.490;2023-11-21T06:52:03;18.92;;;3.95;;
31004;SDS011;17676;52.254;4.490;2023-11-21T06:54:32;14.63;;;3.25;;
31004;SDS011;17676;52.254;4.490;2023-11-21T06:56:58;18.42;;;3.97;;
31004;SDS011;17676;52.254;4.490;2023-11-21T06:59:24;17.55;;;3.22;;
31004;SDS011;17676;52.254;4.490;2023-11-21T07:05:29;13.55;;;3.25;;
31004;SDS011;17676;52.254;4.490;2023-11-21T07:07:54;14.98;;;3.08;;
31004;SDS011;17676;52.254;4.490;2023-11-21T07:10:20;16.92;;;3.47;;
31004;SDS011;17676;52.254;4.490;2023-11-21T07:12:46;18.55;;;3.90;;
31004;SDS011;17676;52.254;4.490;2023-11-21T07:15:11;12.15;;;3.50;;
31004;SDS011;17676;52.254;4.490;2023-11-21T07:17:37;16.45;;;4.15;;
31004;SDS011;17676;52.254;4.490;2023-11-21T07:20:03;19.85;;;4.18;;
31004;SDS011;17676;52.254;4.490;2023-11-21T07:22:29;17.20;;;4.10;;
31004;SDS011;17676;52.254;4.490;2023-11-21T07:24:55;14.63;;;3.47;;
31004;SDS011;17676;52.254;4.490;2023-11-21T07:27:24;12.80;;;2.60;;
31004;SDS011;17676;52.254;4.490;2023-11-21T07:29:49;15.20;;;2.45;;
31004;SDS011;17676;52.254;4.490;2023-11-21T07:32:15;11.90;;;2.78;;
31004;SDS011;17676;52.254;4.490;2023-11-21T07:34:41;13.70;;;2.53;;
31004;SDS011;17676;52.254;4.490;2023-11-21T07:37:09;16.58;;;2.20;;
31004;SDS011;17676;52.254;4.490;2023-11-21T07:39:35;12.52;;;2.53;;
31004;SDS011;17676;52.254;4.490;2023-11-21T07:42:01;6.13;;;2.72;;
31004;SDS011;17676;52.254;4.490;2023-11-21T07:44:27;12.18;;;2.80;;
31004;SDS011;17676;52.254;4.490;2023-11-21T07:46:54;6.93;;;2.50;;
31004;SDS011;17676;52.254;4.490;2023-11-21T07:49:22;10.05;;;2.45;;
31004;SDS011;17676;52.254;4.490;2023-11-21T07:51:51;12.55;;;2.70;;
31004;SDS011;17676;52.254;4.490;2023-11-21T07:54:17;15.00;;;3.40;;
31004;SDS011;17676;52.254;4.490;2023-11-21T07:56:44;11.85;;;2.78;;
31004;SDS011;17676;52.254;4.490;2023-11-21T07:59:10;13.93;;;3.30;;
31004;SDS011;17676;52.254;4.490;2023-11-21T08:01:37;12.10;;;3.40;;
31004;SDS011;17676;52.254;4.490;2023-11-21T08:04:03;13.75;;;3.75;;
31004;SDS011;17676;52.254;4.490;2023-11-21T08:06:31;14.93;;;4.22;;
31004;SDS011;17676;52.254;4.490;2023-11-21T08:09:01;12.40;;;2.72;;
31004;SDS011;17676;52.254;4.490;2023-11-21T08:11:28;11.30;;;3.17;;
31004;SDS011;17676;52.254;4.490;2023-11-21T08:13:56;10.77;;;2.90;;
31004;SDS011;17676;52.254;4.490;2023-11-21T08:16:22;6.25;;;2.30;;
31004;SDS011;17676;52.254;4.490;2023-11-21T08:18:49;6.53;;;1.73;;
31004;SDS011;17676;52.254;4.490;2023-11-21T08:21:19;4.95;;;1.20;;
31004;SDS011;17676;52.254;4.490;2023-11-21T08:23:44;5.35;;;1.27;;
31004;SDS011;17676;52.254;4.490;2023-11-21T08:26:12;5.32;;;1.00;;
31004;SDS011;17676;52.254;4.490;2023-11-21T08:28:45;6.93;;;1.55;;
31004;SDS011;17676;52.254;4.490;2023-11-21T08:31:12;5.57;;;1.60;;
31004;SDS011;17676;52.254;4.490;2023-11-21T08:33:38;6.13;;;1.60;;
31004;SDS011;17676;52.254;4.490;2023-11-21T08:36:10;5.40;;;1.63;;
31004;SDS011;17676;52.254;4.490;2023-11-21T08:38:38;3.22;;;1.83;;
31004;SDS011;17676;52.254;4.490;2023-11-21T08:41:07;6.78;;;2.15;;
31004;SDS011;17676;52.254;4.490;2023-11-21T08:43:36;7.10;;;2.55;;
31004;SDS011;17676;52.254;4.490;2023-11-21T08:46:05;5.25;;;2.45;;
31004;SDS011;17676;52.254;4.490;2023-11-21T08:48:31;7.82;;;3.00;;
31004;SDS011;17676;52.254;4.490;2023-11-21T08:50:57;4.38;;;2.45;;
31004;SDS011;17676;52.254;4.490;2023-11-21T08:53:23;5.20;;;2.45;;
31004;SDS011;17676;52.254;4.490;2023-11-21T08:55:48;4.68;;;3.03;;
31004;SDS011;17676;52.254;4.490;2023-11-21T08:58:15;7.80;;;2.80;;
31004;SDS011;17676;52.254;4.490;2023-11-21T09:00:41;7.53;;;3.22;;
31004;SDS011;17676;52.254;4.490;2023-11-21T09:03:06;5.75;;;3.80;;
31004;SDS011;17676;52.254;4.490;2023-11-21T09:05:33;5.68;;;3.35;;
31004;SDS011;17676;52.254;4.490;2023-11-21T09:08:03;3.95;;;2.97;;
31004;SDS011;17676;52.254;4.490;2023-11-21T09:10:29;6.85;;;3.40;;
31004;SDS011;17676;52.254;4.490;2023-11-21T09:12:55;5.28;;;2.78;;
31004;SDS011;17676;52.254;4.490;2023-11-21T09:15:20;4.38;;;3.03;;
31004;SDS011;17676;52.254;4.490;2023-11-21T09:17:47;4.90;;;2.50;;
31004;SDS011;17676;52.254;4.490;2023-11-21T09:20:13;5.30;;;1.83;;
31004;SDS011;17676;52.254;4.490;2023-11-21T09:22:40;3.55;;;1.92;;
31004;SDS011;17676;52.254;4.490;2023-11-21T09:25:06;3.67;;;1.58;;
31004;SDS011;17676;52.254;4.490;2023-11-21T09:27:33;4.32;;;1.52;;
31004;SDS011;17676;52.254;4.490;2023-11-21T09:30:00;2.83;;;1.35;;
31004;SDS011;17676;52.254;4.490;2023-11-21T09:32:26;3.15;;;1.70;;
31004;SDS011;17676;52.254;4.490;2023-11-21T09:34:52;4.10;;;1.85;;
31004;SDS011;17676;52.254;4.490;2023-11-21T09:37:20;2.40;;;1.98;;
31004;SDS011;17676;52.254;4.490;2023-11-21T09:39:46;3.70;;;2.03;;
31004;SDS011;17676;52.254;4.490;2023-11-21T09:42:17;5.72;;;1.70;;
31004;SDS011;17676;52.254;4.490;2023-11-21T09:44:51;4.47;;;1.60;;
31004;SDS011;17676;52.254;4.490;2023-11-21T09:47:23;2.15;;;1.42;;
31004;SDS011;17676;52.254;4.490;2023-11-21T09:49:52;5.20;;;1.75;;
31004;SDS011;17676;52.254;4.490;2023-11-21T09:52:22;2.08;;;1.40;;
31004;SDS011;17676;52.254;4.490;2023-11-21T09:54:52;4.10;;;1.65;;
31004;SDS011;17676;52.254;4.490;2023-11-21T09:57:27;2.92;;;1.50;;
31004;SDS011;17676;52.254;4.490;2023-11-21T09:59:54;3.78;;;1.52;;
31004;SDS011;17676;52.254;4.490;2023-11-21T10:02:26;2.45;;;1.10;;
31004;SDS011;17676;52.254;4.490;2023-11-21T10:04:57;2.13;;;1.52;;
31004;SDS011;17676;52.254;4.490;2023-11-21T10:07:28;5.03;;;1.67;;
31004;SDS011;17676;52.254;4.490;2023-11-21T10:09:56;2.85;;;1.63;;
31004;SDS011;17676;52.254;4.490;2023-11-21T10:12:24;3.30;;;1.67;;
31004;SDS011;17676;52.254;4.490;2023-11-21T10:14:51;2.35;;;1.63;;
31004;SDS011;17676;52.254;4.490;2023-11-21T10:17:20;3.28;;;1.25;;
31004;SDS011;17676;52.254;4.490;2023-11-21T10:19:52;1.67;;;1.35;;
31004;SDS011;17676;52.254;4.490;2023-11-21T10:22:22;4.15;;;1.50;;
31004;SDS011;17676;52.254;4.490;2023-11-21T10:24:49;3.95;;;1.70;;
31004;SDS011;17676;52.254;4.490;2023-11-21T10:27:14;2.88;;;1.10;;
31004;SDS011;17676;52.254;4.490;2023-11-21T10:29:41;1.73;;;1.27;;
31004;SDS011;17676;52.254;4.490;2023-11-21T10:32:08;2.08;;;1.40;;
31004;SDS011;17676;52.254;4.490;2023-11-21T10:34:34;2.90;;;1.48;;
31004;SDS011;17676;52.254;4.490;2023-11-21T10:37:10;1.83;;;1.73;;
31004;SDS011;17676;52.254;4.490;2023-11-21T10:39:36;4.13;;;1.98;;
31004;SDS011;17676;52.254;4.490;2023-11-21T10:42:03;2.80;;;1.33;;
31004;SDS011;17676;52.254;4.490;2023-11-21T10:44:32;3.58;;;2.00;;
31004;SDS011;17676;52.254;4.490;2023-11-21T10:47:00;2.28;;;1.70;;
31004;SDS011;17676;52.254;4.490;2023-11-21T10:49:26;2.88;;;2.28;;
31004;SDS011;17676;52.254;4.490;2023-11-21T10:51:55;3.58;;;2.20;;
31004;SDS011;17676;52.254;4.490;2023-11-21T10:54:22;3.03;;;1.55;;
31004;SDS011;17676;52.254;4.490;2023-11-21T10:56:49;3.45;;;2.13;;
31004;SDS011;17676;52.254;4.490;2023-11-21T10:59:16;2.75;;;2.00;;
31004;SDS011;17676;52.254;4.490;2023-11-21T11:01:42;2.40;;;1.80;;
31004;SDS011;17676;52.254;4.490;2023-11-21T11:04:10;5.10;;;2.30;;
31004;SDS011;17676;52.254;4.490;2023-11-21T11:06:43;4.43;;;2.10;;
31004;SDS011;17676;52.254;4.490;2023-11-21T11:09:12;4.18;;;2.33;;
31004;SDS011;17676;52.254;4.490;2023-11-21T11:11:39;2.42;;;2.20;;
31004;SDS011;17676;52.254;4.490;2023-11-21T11:14:07;3.10;;;1.90;;
31004;SDS011;17676;52.254;4.490;2023-11-21T11:16:36;5.03;;;2.50;;
31004;SDS011;17676;52.254;4.490;2023-11-21T11:19:06;4.63;;;2.38;;
31004;SDS011;17676;52.254;4.490;2023-11-21T11:24:25;3.42;;;2.78;;
31004;SDS011;17676;52.254;4.490;2023-11-21T11:27:25;7.20;;;3.65;;
31004;SDS011;17676;52.254;4.490;2023-11-21T11:38:13;6.35;;;3.60;;
31004;SDS011;17676;52.254;4.490;2023-11-21T11:40:44;5.85;;;4.20;;
31004;SDS011;17676;52.254;4.490;2023-11-21T11:43:13;6.10;;;4.35;;
31004;SDS011;17676;52.254;4.490;2023-11-21T11:45:49;5.47;;;3.80;;
31004;SDS011;17676;52.254;4.490;2023-11-21T11:48:18;6.68;;;4.40;;
31004;SDS011;17676;52.254;4.490;2023-11-21T11:51:02;6.30;;;3.85;;
31004;SDS011;17676;52.254;4.490;2023-11-21T11:53:33;6.97;;;4.28;;
31004;SDS011;17676;52.254;4.490;2023-11-21T11:56:21;5.18;;;4.05;;
31004;SDS011;17676;52.254;4.490;2023-11-21T11:58:51;5.05;;;3.95;;
31004;SDS011;17676;52.254;4.490;2023-11-21T12:01:21;6.82;;;4.60;;
31004;SDS011;17676;52.254;4.490;2023-11-21T12:04:48;6.57;;;4.43;;
31004;SDS011;17676;52.254;4.490;2023-11-21T12:06:45;6.75;;;4.40;;
31004;SDS011;17676;52.254;4.490;2023-11-21T12:09:20;4.88;;;4.15;;
31004;SDS011;17676;52.254;4.490;2023-11-21T12:11:50;5.75;;;3.78;;
31004;SDS011;17676;52.254;4.490;2023-11-21T12:14:16;6.22;;;4.75;;
31004;SDS011;17676;52.254;4.490;2023-11-21T12:16:43;5.93;;;4.43;;
31004;SDS011;17676;52.254;4.490;2023-11-21T12:19:12;4.97;;;4.43;;
31004;SDS011;17676;52.254;4.490;2023-11-21T12:21:38;4.60;;;3.50;;
31004;SDS011;17676;52.254;4.490;2023-11-21T12:24:09;6.95;;;4.88;;
31004;SDS011;17676;52.254;4.490;2023-11-21T12:26:35;4.40;;;3.80;;
31004;SDS011;17676;52.254;4.490;2023-11-21T12:29:04;6.03;;;4.55;;
31004;SDS011;17676;52.254;4.490;2023-11-21T12:31:32;4.78;;;3.80;;
31004;SDS011;17676;52.254;4.490;2023-11-21T12:33:59;5.85;;;3.47;;
31004;SDS011;17676;52.254;4.490;2023-11-21T12:36:25;3.55;;;3.03;;
31004;SDS011;17676;52.254;4.490;2023-11-21T12:38:51;6.25;;;3.45;;
31004;SDS011;17676;52.254;4.490;2023-11-21T12:41:17;3.22;;;2.88;;
31004;SDS011;17676;52.254;4.490;2023-11-21T12:43:46;5.15;;;2.67;;
31004;SDS011;17676;52.254;4.490;2023-11-21T12:46:13;5.15;;;3.28;;
31004;SDS011;17676;52.254;4.490;2023-11-21T12:48:43;4.20;;;2.88;;
31004;SDS011;17676;52.254;4.490;2023-11-21T12:51:10;4.85;;;2.97;;
31004;SDS011;17676;52.254;4.490;2023-11-21T12:53:44;4.18;;;2.53;;
31004;SDS011;17676;52.254;4.490;2023-11-21T12:56:10;3.83;;;3.35;;
31004;SDS011;17676;52.254;4.490;2023-11-21T12:58:37;6.40;;;3.72;;
31004;SDS011;17676;52.254;4.490;2023-11-21T13:01:07;4.63;;;3.15;;
31004;SDS011;17676;52.254;4.490;2023-11-21T13:03:43;5.40;;;2.70;;
31004;SDS011;17676;52.254;4.490;2023-11-21T13:06:16;5.90;;;2.35;;
31004;SDS011;17676;52.254;4.490;2023-11-21T13:08:43;3.28;;;2.35;;
31004;SDS011;17676;52.254;4.490;2023-11-21T13:11:10;2.35;;;2.08;;
31004;SDS011;17676;52.254;4.490;2023-11-21T13:13:36;2.60;;;2.13;;
31004;SDS011;17676;52.254;4.490;2023-11-21T13:16:03;3.35;;;2.15;;
31004;SDS011;17676;52.254;4.490;2023-11-21T13:18:33;2.60;;;1.85;;
31004;SDS011;17676;52.254;4.490;2023-11-21T13:21:00;2.53;;;1.92;;
31004;SDS011;17676;52.254;4.490;2023-11-21T13:23:42;3.13;;;2.35;;
31004;SDS011;17676;52.254;4.490;2023-11-21T13:26:08;3.17;;;2.00;;
31004;SDS011;17676;52.254;4.490;2023-11-21T13:28:35;2.63;;;2.08;;
31004;SDS011;17676;52.254;4.490;2023-11-21T13:31:03;3.88;;;2.63;;
31004;SDS011;17676;52.254;4.490;2023-11-21T13:33:46;3.58;;;2.70;;
31004;SDS011;17676;52.254;4.490;2023-11-21T13:36:19;2.25;;;2.05;;
31004;SDS011;17676;52.254;4.490;2023-11-21T13:38:49;2.80;;;2.25;;
31004;SDS011;17676;52.254;4.490;2023-11-21T13:41:15;4.82;;;2.72;;
31004;SDS011;17676;52.254;4.490;2023-11-21T13:43:43;4.10;;;2.60;;
31004;SDS011;17676;52.254;4.490;2023-11-21T13:46:24;4.40;;;2.65;;
31004;SDS011;17676;52.254;4.490;2023-11-21T13:48:52;4.47;;;3.45;;
31004;SDS011;17676;52.254;4.490;2023-11-21T13:51:21;4.88;;;3.30;;
31004;SDS011;17676;52.254;4.490;2023-11-21T13:53:55;6.45;;;3.22;;
31004;SDS011;17676;52.254;4.490;2023-11-21T13:56:21;4.55;;;4.07;;
31004;SDS011;17676;52.254;4.490;2023-11-21T13:58:53;5.57;;;4.35;;
31004;SDS011;17676;52.254;4.490;2023-11-21T14:01:19;5.15;;;4.32;;
31004;SDS011;17676;52.254;4.490;2023-11-21T14:03:55;5.55;;;4.28;;
31004;SDS011;17676;52.254;4.490;2023-11-21T14:06:39;6.90;;;5.10;;
31004;SDS011;17676;52.254;4.490;2023-11-21T14:09:13;7.60;;;5.05;;
31004;SDS011;17676;52.254;4.490;2023-11-21T14:11:47;5.18;;;4.40;;
31004;SDS011;17676;52.254;4.490;2023-11-21T14:14:21;8.00;;;4.90;;
31004;SDS011;17676;52.254;4.490;2023-11-21T14:16:49;7.07;;;5.13;;
31004;SDS011;17676;52.254;4.490;2023-11-21T14:19:16;7.20;;;5.20;;
31004;SDS011;17676;52.254;4.490;2023-11-21T14:21:45;7.70;;;5.43;;
31004;SDS011;17676;52.254;4.490;2023-11-21T14:24:11;6.53;;;5.15;;
31004;SDS011;17676;52.254;4.490;2023-11-21T14:26:39;8.05;;;5.82;;
31004;SDS011;17676;52.254;4.490;2023-11-21T14:29:06;6.72;;;5.32;;
31004;SDS011;17676;52.254;4.490;2023-11-21T14:31:33;8.18;;;5.97;;
31004;SDS011;17676;52.254;4.490;2023-11-21T14:33:59;6.93;;;5.85;;
31004;SDS011;17676;52.254;4.490;2023-11-21T14:36:27;7.35;;;6.13;;
31004;SDS011;17676;52.254;4.490;2023-11-21T14:38:53;7.38;;;5.80;;
31004;SDS011;17676;52.254;4.490;2023-11-21T14:41:19;7.72;;;5.20;;
31004;SDS011;17676;52.254;4.490;2023-11-21T14:43:45;6.47;;;4.78;;
31004;SDS011;17676;52.254;4.490;2023-11-21T14:46:14;5.72;;;4.30;;
31004;SDS011;17676;52.254;4.490;2023-11-21T14:48:42;7.45;;;4.72;;
31004;SDS011;17676;52.254;4.490;2023-11-21T14:51:09;4.90;;;4.38;;
31004;SDS011;17676;52.254;4.490;2023-11-21T14:53:54;6.93;;;5.40;;
31004;SDS011;17676;52.254;4.490;2023-11-21T14:56:20;8.38;;;6.30;;
31004;SDS011;17676;52.254;4.490;2023-11-21T14:58:56;8.80;;;6.13;;
31004;SDS011;17676;52.254;4.490;2023-11-21T15:01:22;7.93;;;5.95;;
31004;SDS011;17676;52.254;4.490;2023-11-21T15:04:21;8.35;;;6.22;;